Time;durP1;ratioP1;P1;durP2;ratioP2;P2;SDS_P1;SDS_P2;PMS_P1;PMS_P2;Temp;Humidity;BMP_temperature;BMP_pressure;BME280_temperature;BME280_humidity;BME280_pressure;Samples;Min_cycle;Max_cycle;Signal;HPM_P1;HPM_P2
2022/01/22 00:02:04;;;;;;;9.90;7.00;;;3.90;99.90;;;;;;5075584;28;20756;-70
2022/01/22 00:04:30;;;;;;;11.73;6.80;;;4.00;99.90;;;;;;5075422;28;20469;-71
2022/01/22 00:06:58;;;;;;;10.37;6.80;;;4.00;99.90;;;;;;5075633;28;20910;-71
2022/01/22 00:09:28;;;;;;;9.97;6.77;;;4.00;99.90;;;;;;5075725;28;20465;-70
2022/01/22 00:11:56;;;;;;;10.93;7.30;;;4.00;99.90;;;;;;5075667;28;20454;-71
2022/01/22 00:14:24;;;;;;;12.03;6.37;;;4.10;99.90;;;;;;5075286;28;20460;-71
2022/01/22 00:16:52;;;;;;;10.30;7.03;;;4.10;99.90;;;;;;5074877;28;20957;-71
2022/01/22 00:19:19;;;;;;;11.60;7.40;;;4.10;99.90;;;;;;5075734;28;20867;-71
2022/01/22 00:21:45;;;;;;;13.80;8.20;;;4.10;99.90;;;;;;5075461;28;20454;-71
2022/01/22 00:24:13;;;;;;;13.27;8.13;;;4.10;99.90;;;;;;5074944;28;20550;-71
2022/01/22 00:26:40;;;;;;;11.80;7.30;;;4.10;99.90;;;;;;5075014;28;20523;-71
2022/01/22 00:29:10;;;;;;;13.63;8.17;;;4.20;99.90;;;;;;5075390;28;20516;-71
2022/01/22 00:31:36;;;;;;;15.47;7.80;;;4.20;99.90;;;;;;5075152;28;20458;-70
2022/01/22 00:34:04;;;;;;;14.60;9.33;;;4.20;99.90;;;;;;5075153;28;20519;-71
2022/01/22 00:36:30;;;;;;;13.17;7.90;;;4.20;99.90;;;;;;5075592;28;20474;-71
2022/01/22 00:38:57;;;;;;;14.23;8.97;;;4.20;99.90;;;;;;5079391;28;20469;-71
2022/01/22 00:41:24;;;;;;;13.40;7.80;;;4.20;99.90;;;;;;5078980;28;20458;-71
2022/01/22 00:43:50;;;;;;;12.10;8.47;;;4.20;99.90;;;;;;5075956;28;20469;-71
2022/01/22 00:46:18;;;;;;;15.10;7.67;;;4.30;99.90;;;;;;5075083;28;20451;-71
2022/01/22 00:48:45;;;;;;;11.33;8.13;;;4.30;99.90;;;;;;5074874;28;20486;-71
2022/01/22 00:51:12;;;;;;;14.63;8.27;;;4.30;99.90;;;;;;5075106;28;20455;-71
2022/01/22 00:53:39;;;;;;;13.30;8.40;;;4.20;99.90;;;;;;5075245;28;20523;-71
2022/01/22 00:56:06;;;;;;;13.67;9.07;;;4.30;99.90;;;;;;5074964;28;20490;-71
2022/01/22 00:58:32;;;;;;;15.60;9.47;;;4.20;99.90;;;;;;5074680;28;20458;-71
2022/01/22 01:00:59;;;;;;;12.30;8.50;;;4.30;99.90;;;;;;5074877;28;20518;-70
2022/01/22 01:03:31;;;;;;;13.60;8.67;;;4.30;99.90;;;;;;5075171;28;20516;-71
2022/01/22 01:05:58;;;;;;;13.47;8.47;;;4.20;99.90;;;;;;5074596;28;20534;-71
2022/01/22 01:08:27;;;;;;;14.20;9.07;;;4.20;99.90;;;;;;5074630;28;20453;-71
2022/01/22 01:10:54;;;;;;;22.00;13.27;;;4.20;99.90;;;;;;5075285;28;20552;-71
2022/01/22 01:13:25;;;;;;;15.43;8.50;;;4.30;99.90;;;;;;5074567;28;20458;-71
2022/01/22 01:16:00;;;;;;;10.67;7.93;;;4.30;99.90;;;;;;5074325;28;20474;-71
2022/01/22 01:32:16;;;;;;;8.17;5.60;;;4.40;99.90;;;;;;5078492;28;20513;-71
2022/01/22 01:34:46;;;;;;;10.03;6.77;;;4.30;99.90;;;;;;5078627;28;20452;-71
2022/01/22 01:37:15;;;;;;;7.23;5.17;;;4.40;99.90;;;;;;5078363;28;20516;-71
2022/01/22 01:39:43;;;;;;;8.60;5.80;;;4.40;99.90;;;;;;5078443;28;20473;-71
2022/01/22 01:42:14;;;;;;;7.60;5.57;;;4.40;99.90;;;;;;5078052;28;20950;-71
2022/01/22 01:44:41;;;;;;;6.17;5.03;;;4.40;99.90;;;;;;5078175;28;20438;-71
2022/01/22 01:47:14;;;;;;;8.63;5.30;;;4.40;99.90;;;;;;5077577;28;20454;-71
2022/01/22 01:49:41;;;;;;;7.40;5.60;;;4.40;99.90;;;;;;5078480;28;20447;-71
2022/01/22 01:52:17;;;;;;;10.37;5.97;;;4.40;99.90;;;;;;5078302;28;20480;-71
2022/01/22 01:55:00;;;;;;;8.97;5.43;;;4.40;99.90;;;;;;5078360;28;20785;-71
2022/01/22 01:57:38;;;;;;;8.13;5.03;;;4.40;99.90;;;;;;5078703;28;20462;-71
2022/01/22 02:00:11;;;;;;;6.20;5.10;;;4.40;99.90;;;;;;5077846;28;20801;-71
2022/01/22 02:02:39;;;;;;;6.40;5.27;;;4.40;99.90;;;;;;5078139;28;20449;-71
2022/01/22 02:05:08;;;;;;;6.40;4.67;;;4.40;99.90;;;;;;5077409;28;20548;-71
2022/01/22 02:07:39;;;;;;;6.67;5.37;;;4.40;99.90;;;;;;5078021;28;20545;-71
2022/01/22 02:10:07;;;;;;;5.93;4.10;;;4.40;99.90;;;;;;5077588;28;20477;-71
2022/01/22 02:12:58;;;;;;;5.77;5.13;;;4.40;99.90;;;;;;5077636;28;20464;-71
2022/01/22 02:23:43;;;;;;;6.20;4.90;;;4.40;99.90;;;;;;5078061;28;20430;-72
2022/01/22 02:26:12;;;;;;;5.80;4.50;;;4.30;99.90;;;;;;5077840;28;20442;-72
2022/01/22 02:28:39;;;;;;;8.27;5.40;;;4.30;99.90;;;;;;5077609;28;20469;-71
2022/01/22 02:31:12;;;;;;;6.17;5.13;;;4.30;99.90;;;;;;5077474;28;20454;-71
2022/01/22 02:33:48;;;;;;;8.13;5.47;;;4.30;99.90;;;;;;5077557;28;20564;-71
2022/01/22 02:36:20;;;;;;;6.60;4.77;;;4.30;99.90;;;;;;5077460;28;20797;-71
2022/01/22 02:38:54;;;;;;;7.13;5.30;;;4.30;99.90;;;;;;5076686;28;20442;-71
2022/01/22 02:41:23;;;;;;;7.03;5.20;;;4.30;99.90;;;;;;5077541;28;20478;-71
2022/01/22 02:43:52;;;;;;;7.27;4.97;;;4.30;99.90;;;;;;5077267;28;20500;-71
2022/01/22 02:46:20;;;;;;;8.70;4.97;;;4.30;99.90;;;;;;5077260;28;20458;-71
2022/01/22 02:48:47;;;;;;;9.50;5.03;;;4.30;99.90;;;;;;5077352;28;20822;-71
2022/01/22 02:51:14;;;;;;;7.70;5.20;;;4.30;99.90;;;;;;5077428;28;20469;-71
2022/01/22 02:53:41;;;;;;;6.80;4.93;;;4.30;99.90;;;;;;5077197;28;20465;-71
2022/01/22 02:56:10;;;;;;;9.53;5.07;;;4.30;99.90;;;;;;5076861;28;20462;-71
2022/01/22 02:58:37;;;;;;;7.93;5.77;;;4.30;99.90;;;;;;5077021;28;20454;-71
2022/01/22 03:01:04;;;;;;;7.70;5.33;;;4.30;99.90;;;;;;5078504;28;20462;-71
2022/01/22 03:03:30;;;;;;;6.77;5.23;;;4.30;99.90;;;;;;5079008;28;20454;-71
2022/01/22 03:05:57;;;;;;;7.17;4.90;;;4.30;99.90;;;;;;5078577;28;20859;-71
2022/01/22 03:08:28;;;;;;;10.17;5.80;;;4.30;99.90;;;;;;5079054;28;20481;-71
2022/01/22 03:10:55;;;;;;;6.90;4.43;;;4.30;99.90;;;;;;5077892;28;20438;-71
2022/01/22 03:16:15;;;;;;;6.10;4.77;;;4.30;99.90;;;;;;5077874;28;20434;-71
2022/01/22 03:18:57;;;;;;;5.43;4.00;;;4.30;99.90;;;;;;5078290;28;20438;-71
2022/01/22 03:21:35;;;;;;;5.77;3.50;;;4.20;99.90;;;;;;5077586;28;20753;-71
2022/01/22 03:29:38;;;;;;;7.03;4.70;;;4.20;99.90;;;;;;5078461;28;20561;-71
2022/01/22 03:32:06;;;;;;;5.60;3.90;;;4.20;99.90;;;;;;5078317;28;20871;-71
2022/01/22 03:34:39;;;;;;;4.50;3.63;;;4.20;99.90;;;;;;5077688;28;20460;-71
2022/01/22 03:37:06;;;;;;;5.90;4.30;;;4.10;99.90;;;;;;5078434;28;20492;-71
2022/01/22 03:39:32;;;;;;;6.97;4.50;;;4.10;99.90;;;;;;5078026;28;20520;-71
2022/01/22 03:41:59;;;;;;;5.93;4.30;;;4.10;99.90;;;;;;5077616;28;20458;-71
2022/01/22 03:44:26;;;;;;;4.93;3.87;;;4.00;99.90;;;;;;5076894;28;20454;-71
2022/01/22 03:46:54;;;;;;;7.70;5.20;;;4.00;99.90;;;;;;5076928;28;20512;-73
2022/01/22 03:49:21;;;;;;;4.80;3.83;;;3.90;99.90;;;;;;5077148;28;20486;-71
2022/01/22 03:51:47;;;;;;;5.53;4.90;;;3.90;99.90;;;;;;5079679;28;20454;-71
2022/01/22 03:54:14;;;;;;;6.10;4.67;;;3.90;99.90;;;;;;5080727;28;20515;-71
2022/01/22 03:56:45;;;;;;;7.70;5.10;;;3.80;99.90;;;;;;5081093;28;20576;-71
2022/01/22 03:59:12;;;;;;;11.23;6.57;;;3.80;99.90;;;;;;5081943;28;20453;-71
2022/01/22 04:04:36;;;;;;;6.50;4.57;;;3.70;99.90;;;;;;5078371;28;20909;-71
2022/01/22 04:09:48;;;;;;;8.63;5.93;;;3.70;99.90;;;;;;5077229;28;20441;-71
2022/01/22 04:12:20;;;;;;;6.57;4.60;;;3.60;99.90;;;;;;5076828;28;20856;-71
2022/01/22 04:14:52;;;;;;;8.23;4.80;;;3.60;99.90;;;;;;5076210;28;20800;-71
2022/01/22 04:17:37;;;;;;;9.30;4.00;;;3.60;99.90;;;;;;5075968;28;20803;-71
2022/01/22 04:25:39;;;;;;;9.47;4.37;;;3.50;99.90;;;;;;5075745;28;20429;-70
2022/01/22 04:28:06;;;;;;;7.33;3.60;;;3.40;99.90;;;;;;5076542;28;20516;-70
2022/01/22 04:30:32;;;;;;;4.90;3.67;;;3.50;99.90;;;;;;5076060;28;20492;-70
2022/01/22 04:33:04;;;;;;;6.10;4.10;;;3.40;99.90;;;;;;5075867;28;20457;-70
2022/01/22 04:35:32;;;;;;;5.50;3.17;;;3.40;99.90;;;;;;5075641;28;20438;-70
2022/01/22 04:37:59;;;;;;;6.53;3.63;;;3.50;99.90;;;;;;5075308;28;20482;-70
2022/01/22 04:40:26;;;;;;;3.80;3.40;;;3.50;99.90;;;;;;5075526;28;20462;-70
2022/01/22 04:42:53;;;;;;;6.47;4.33;;;3.50;99.90;;;;;;5075096;28;20784;-70
2022/01/22 04:45:27;;;;;;;6.77;3.90;;;3.60;99.90;;;;;;5075898;28;20796;-71
2022/01/22 04:48:08;;;;;;;5.60;4.33;;;3.60;99.90;;;;;;5076773;28;20478;-70
2022/01/22 04:56:05;;;;;;;7.57;3.50;;;3.60;99.90;;;;;;5077627;28;20640;-70
2022/01/22 04:58:32;;;;;;;4.80;3.77;;;3.50;99.90;;;;;;5079269;28;20950;-70
2022/01/22 05:00:58;;;;;;;6.00;3.10;;;3.60;99.90;;;;;;5083089;28;20450;-70
2022/01/22 05:03:25;;;;;;;5.90;3.90;;;3.60;99.90;;;;;;5083676;28;20834;-71
2022/01/22 05:05:53;;;;;;;5.93;4.37;;;3.60;99.90;;;;;;5079966;28;20982;-70
2022/01/22 05:08:19;;;;;;;9.53;3.73;;;3.60;99.90;;;;;;5078147;28;20918;-70
2022/01/22 05:10:46;;;;;;;5.40;4.10;;;3.50;99.90;;;;;;5077799;28;20481;-70
2022/01/22 05:13:13;;;;;;;5.07;3.27;;;3.50;99.90;;;;;;5076188;28;20523;-70
2022/01/22 05:15:39;;;;;;;5.07;3.33;;;3.50;99.90;;;;;;5076059;28;20530;-70
2022/01/22 05:18:07;;;;;;;8.53;3.90;;;3.50;99.90;;;;;;5074779;28;20485;-70
2022/01/22 05:20:43;;;;;;;4.90;3.37;;;3.50;99.90;;;;;;5074943;28;20458;-70
2022/01/22 05:23:15;;;;;;;4.80;3.97;;;3.50;99.90;;;;;;5076041;28;20438;-70
2022/01/22 05:25:46;;;;;;;4.50;3.47;;;3.40;99.90;;;;;;5075076;28;20802;-71
2022/01/22 05:28:58;;;;;;;5.53;3.43;;;3.40;99.90;;;;;;5074721;28;20459;-71
2022/01/22 05:31:35;;;;;;;6.87;3.27;;;3.40;99.90;;;;;;5074773;28;20537;-71
2022/01/22 05:37:00;;;;;;;8.83;3.90;;;3.40;99.90;;;;;;5074644;28;20504;-71
2022/01/22 05:39:29;;;;;;;7.73;3.57;;;3.30;99.90;;;;;;5074751;28;20450;-71
2022/01/22 05:41:57;;;;;;;7.13;3.30;;;3.30;99.90;;;;;;5074287;28;20454;-71
2022/01/22 05:44:27;;;;;;;6.00;3.13;;;3.30;99.90;;;;;;5075171;28;20483;-71
2022/01/22 05:46:56;;;;;;;5.00;2.93;;;3.20;99.90;;;;;;5074946;28;20457;-71
2022/01/22 05:49:25;;;;;;;7.60;3.63;;;3.20;99.90;;;;;;5073713;28;20977;-71
2022/01/22 05:51:55;;;;;;;5.07;4.00;;;3.20;99.90;;;;;;5074411;28;20454;-73
2022/01/22 05:59:51;;;;;;;5.60;3.43;;;3.10;99.90;;;;;;5074352;28;20886;-71
2022/01/22 06:02:19;;;;;;;6.07;3.90;;;3.00;99.90;;;;;;5074565;28;20519;-71
2022/01/22 06:04:46;;;;;;;8.70;3.60;;;3.00;99.90;;;;;;5074046;28;20930;-71
2022/01/22 06:07:14;;;;;;;3.80;3.30;;;3.00;99.90;;;;;;5075098;28;20458;-71
2022/01/22 06:09:52;;;;;;;7.60;3.83;;;3.00;99.90;;;;;;5074420;28;20527;-71
2022/01/22 06:12:37;;;;;;;5.77;3.17;;;3.00;99.90;;;;;;5074727;28;20438;-71
2022/01/22 06:15:04;;;;;;;4.77;3.03;;;3.00;99.90;;;;;;5078085;28;20782;-71
2022/01/22 06:17:31;;;;;;;4.50;3.80;;;3.00;99.90;;;;;;5077782;28;20542;-71
2022/01/22 06:19:57;;;;;;;6.97;3.17;;;2.90;99.90;;;;;;5077674;28;20454;-71
2022/01/22 06:22:26;;;;;;;12.83;4.17;;;2.90;99.90;;;;;;5077388;28;20461;-71
2022/01/22 06:24:52;;;;;;;8.00;4.00;;;2.90;99.90;;;;;;5077434;28;20914;-71
2022/01/22 06:27:20;;;;;;;6.80;4.07;;;2.90;99.90;;;;;;5077426;28;20454;-71
2022/01/22 06:29:47;;;;;;;6.80;3.47;;;2.90;99.90;;;;;;5077380;28;20455;-71
2022/01/22 06:32:14;;;;;;;10.47;4.43;;;2.90;99.90;;;;;;5077531;28;20458;-71
2022/01/22 06:34:40;;;;;;;6.83;4.50;;;2.90;99.90;;;;;;5077791;28;20465;-71
2022/01/22 06:37:07;;;;;;;4.77;3.33;;;2.90;99.90;;;;;;5077216;28;20890;-71
2022/01/22 06:39:41;;;;;;;5.10;3.70;;;2.90;99.90;;;;;;5077595;28;20468;-71
2022/01/22 06:42:08;;;;;;;8.80;5.33;;;2.90;99.90;;;;;;5077387;28;20503;-71
2022/01/22 06:44:37;;;;;;;7.60;4.50;;;2.90;99.90;;;;;;5077510;28;20458;-71
2022/01/22 06:47:04;;;;;;;7.97;4.00;;;2.90;99.90;;;;;;5077678;28;20535;-71
2022/01/22 06:49:32;;;;;;;10.10;5.67;;;2.90;99.90;;;;;;5077833;28;20453;-71
2022/01/22 06:52:01;;;;;;;12.50;7.70;;;2.80;99.90;;;;;;5077639;28;20477;-71
2022/01/22 06:54:28;;;;;;;7.70;4.87;;;2.80;99.90;;;;;;5077415;28;20462;-70
2022/01/22 06:56:54;;;;;;;9.10;5.50;;;2.80;99.90;;;;;;5077010;28;20462;-70
2022/01/22 06:59:21;;;;;;;6.67;4.83;;;2.80;99.90;;;;;;5077672;28;20494;-71
2022/01/22 07:01:54;;;;;;;8.00;4.87;;;2.70;99.90;;;;;;5077479;28;20515;-70
2022/01/22 07:04:21;;;;;;;9.83;4.50;;;2.70;99.90;;;;;;5076911;28;20442;-71
2022/01/22 07:06:47;;;;;;;10.33;5.00;;;2.70;99.90;;;;;;5077567;28;20511;-71
2022/01/22 07:09:14;;;;;;;11.07;4.97;;;2.70;99.90;;;;;;5078071;28;20450;-71
2022/01/22 07:11:41;;;;;;;11.60;5.87;;;2.70;99.90;;;;;;5079318;28;20466;-71
2022/01/22 07:14:08;;;;;;;10.57;5.00;;;2.70;99.90;;;;;;5082764;28;20922;-71
2022/01/22 07:16:34;;;;;;;9.20;4.00;;;2.70;99.90;;;;;;5081613;28;20780;-71
2022/01/22 07:19:02;;;;;;;10.90;5.80;;;2.70;99.90;;;;;;5081959;28;20478;-71
2022/01/22 07:21:30;;;;;;;7.00;4.67;;;2.70;99.90;;;;;;5079681;28;20478;-71
2022/01/22 07:26:38;;;;;;;9.83;6.07;;;2.80;99.90;;;;;;5079685;28;20438;-71
2022/01/22 07:29:04;;;;;;;11.53;5.60;;;2.80;99.90;;;;;;5079370;28;20488;-71
2022/01/22 07:31:31;;;;;;;13.07;6.00;;;2.80;99.90;;;;;;5077815;28;20454;-71
2022/01/22 07:33:58;;;;;;;9.27;5.63;;;2.90;99.90;;;;;;5079138;28;20541;-71
2022/01/22 07:36:26;;;;;;;9.20;5.60;;;2.90;99.90;;;;;;5079316;28;20454;-71
2022/01/22 07:38:53;;;;;;;10.73;5.83;;;2.90;99.90;;;;;;5077453;28;20485;-71
2022/01/22 07:41:19;;;;;;;7.53;5.37;;;2.90;99.90;;;;;;5076779;28;20787;-71
2022/01/22 07:43:47;;;;;;;6.37;4.80;;;3.00;99.90;;;;;;5076220;28;20469;-71
2022/01/22 07:46:14;;;;;;;7.07;5.90;;;3.00;99.90;;;;;;5076191;28;20513;-72
2022/01/22 07:48:41;;;;;;;9.07;4.90;;;3.10;99.90;;;;;;5075630;28;20478;-72
2022/01/22 07:51:08;;;;;;;10.40;6.00;;;3.10;99.90;;;;;;5075819;28;20523;-71
2022/01/22 07:53:36;;;;;;;10.43;5.57;;;3.10;99.90;;;;;;5075601;28;20462;-71
2022/01/22 07:56:02;;;;;;;9.70;6.67;;;3.10;99.90;;;;;;5075840;28;20462;-71
2022/01/22 07:58:29;;;;;;;9.63;5.57;;;3.20;99.90;;;;;;5075774;28;20473;-71
2022/01/22 08:00:56;;;;;;;15.93;6.90;;;3.20;99.90;;;;;;5075757;28;20454;-71
2022/01/22 08:03:23;;;;;;;10.37;5.47;;;3.20;99.90;;;;;;5076009;28;20524;-71
2022/01/22 08:05:50;;;;;;;12.30;6.30;;;3.20;99.90;;;;;;5075854;28;20454;-72
2022/01/22 08:08:17;;;;;;;8.60;5.97;;;3.20;99.90;;;;;;5076004;28;20523;-72
2022/01/22 08:10:45;;;;;;;15.63;5.93;;;3.20;99.90;;;;;;5076269;28;20833;-72
2022/01/22 08:13:11;;;;;;;6.33;4.80;;;3.20;99.90;;;;;;5076158;28;20458;-72
2022/01/22 08:15:38;;;;;;;10.30;7.03;;;3.10;99.90;;;;;;5076215;28;20470;-72
2022/01/22 08:18:07;;;;;;;15.03;7.33;;;3.20;99.90;;;;;;5075590;28;20478;-71
2022/01/22 08:20:34;;;;;;;8.17;6.07;;;3.20;99.90;;;;;;5075501;28;20454;-71
2022/01/22 08:23:01;;;;;;;9.60;5.30;;;3.20;99.90;;;;;;5075447;28;20466;-75
2022/01/22 08:25:30;;;;;;;9.63;5.43;;;3.20;99.90;;;;;;5075856;28;20492;-72
2022/01/22 08:30:45;;;;;;;13.63;6.10;;;3.20;99.90;;;;;;5075306;28;20426;-71
2022/01/22 08:33:34;;;;;;;11.37;5.80;;;3.30;99.90;;;;;;5075365;28;20497;-71
2022/01/22 08:36:02;;;;;;;12.43;6.70;;;3.30;99.90;;;;;;5074911;28;20443;-72
2022/01/22 08:38:31;;;;;;;10.93;5.97;;;3.30;99.90;;;;;;5074329;28;20489;-72
2022/01/22 08:40:58;;;;;;;11.33;5.20;;;3.30;99.90;;;;;;5074932;28;20458;-72
2022/01/22 08:43:27;;;;;;;9.33;4.67;;;3.40;99.90;;;;;;5075136;28;20449;-72
2022/01/22 08:45:55;;;;;;;6.93;5.33;;;3.40;99.90;;;;;;5074766;28;20464;-72
2022/01/22 08:48:23;;;;;;;10.90;5.20;;;3.50;99.90;;;;;;5074981;28;20478;-71
2022/01/22 08:50:50;;;;;;;7.97;5.20;;;3.50;99.90;;;;;;5075154;28;20540;-71
2022/01/22 08:53:16;;;;;;;9.67;4.83;;;3.60;99.90;;;;;;5075463;28;20523;-71
2022/01/22 08:55:43;;;;;;;7.80;5.30;;;3.60;99.90;;;;;;5074767;28;20492;-72
2022/01/22 08:58:10;;;;;;;11.27;5.73;;;3.70;99.90;;;;;;5074501;28;20478;-72
2022/01/22 09:00:39;;;;;;;8.50;4.97;;;3.80;99.90;;;;;;5074896;28;20539;-71
2022/01/22 09:03:06;;;;;;;4.83;4.10;;;3.80;99.90;;;;;;5074710;28;20458;-73
2022/01/22 09:05:35;;;;;;;5.87;4.53;;;3.80;99.90;;;;;;5075315;28;20519;-72
2022/01/22 09:08:03;;;;;;;7.50;4.90;;;3.80;99.90;;;;;;5074845;28;20466;-71
2022/01/22 09:10:30;;;;;;;7.17;4.70;;;3.80;99.90;;;;;;5075660;28;20473;-71
2022/01/22 09:12:57;;;;;;;6.20;3.67;;;3.90;99.90;;;;;;5075763;28;20454;-71
2022/01/22 09:15:24;;;;;;;5.07;4.30;;;3.90;99.90;;;;;;5076092;28;20458;-71
2022/01/22 09:17:53;;;;;;;5.60;3.70;;;3.90;99.90;;;;;;5075526;28;20462;-72
2022/01/22 09:20:32;;;;;;;8.30;5.20;;;3.90;99.90;;;;;;5074998;28;20550;-72
2022/01/22 09:22:59;;;;;;;8.53;3.83;;;3.90;99.90;;;;;;5075872;28;20849;-72
2022/01/22 09:25:25;;;;;;;6.90;4.13;;;3.90;99.90;;;;;;5075932;28;20455;-73
2022/01/22 09:27:52;;;;;;;6.17;5.10;;;3.90;99.90;;;;;;5075613;28;20523;-71
2022/01/22 09:30:19;;;;;;;4.00;3.60;;;3.90;99.90;;;;;;5074737;28;20462;-71
2022/01/22 09:32:45;;;;;;;9.30;3.63;;;4.00;99.90;;;;;;5074501;28;20900;-72
2022/01/22 09:35:14;;;;;;;7.10;5.00;;;4.00;99.90;;;;;;5074398;28;20465;-71
2022/01/22 09:37:41;;;;;;;8.07;5.57;;;4.00;99.90;;;;;;5074698;28;20822;-71
2022/01/22 09:40:08;;;;;;;6.90;4.53;;;4.00;99.90;;;;;;5074044;28;20966;-71
2022/01/22 09:42:36;;;;;;;7.37;4.90;;;4.00;99.90;;;;;;5074410;28;20469;-71
2022/01/22 09:45:03;;;;;;;8.30;3.90;;;4.10;99.90;;;;;;5074490;28;20470;-71
2022/01/22 09:47:30;;;;;;;7.80;4.60;;;4.10;99.90;;;;;;5074966;28;20972;-71
2022/01/22 09:49:57;;;;;;;8.60;3.97;;;4.20;99.90;;;;;;5078742;28;20514;-72
2022/01/22 09:52:25;;;;;;;5.47;3.80;;;4.20;99.90;;;;;;5078159;28;20462;-71
2022/01/22 09:54:52;;;;;;;5.33;4.03;;;4.20;99.90;;;;;;5077840;28;20921;-71
2022/01/22 09:57:20;;;;;;;8.93;6.33;;;4.30;99.90;;;;;;5077717;28;20523;-71
2022/01/22 09:59:48;;;;;;;8.97;5.93;;;4.20;99.90;;;;;;5078230;28;20488;-71
2022/01/22 10:02:16;;;;;;;7.13;3.87;;;4.20;99.90;;;;;;5078404;28;20557;-71
2022/01/22 10:04:45;;;;;;;7.63;3.73;;;4.20;99.90;;;;;;5077861;28;20968;-71
2022/01/22 10:07:17;;;;;;;11.43;3.83;;;4.20;99.90;;;;;;5078636;28;20509;-71
2022/01/22 10:09:58;;;;;;;4.60;3.90;;;4.20;99.90;;;;;;5079176;28;20722;-70
2022/01/22 10:12:26;;;;;;;4.97;4.20;;;4.20;99.90;;;;;;5077892;28;20446;-71
2022/01/22 10:15:12;;;;;;;12.53;8.20;;;4.30;99.90;;;;;;5078299;28;20488;-71
2022/01/22 10:17:44;;;;;;;12.17;7.73;;;4.30;99.90;;;;;;5077648;28;20442;-71
2022/01/22 10:20:34;;;;;;;14.20;8.97;;;4.40;99.90;;;;;;5077897;28;20482;-71
2022/01/22 10:23:03;;;;;;;6.33;4.43;;;4.40;99.90;;;;;;5077262;28;20895;-71
2022/01/22 10:25:35;;;;;;;6.57;4.77;;;4.40;99.90;;;;;;5077276;28;20461;-71
2022/01/22 10:28:04;;;;;;;7.00;5.23;;;4.50;99.90;;;;;;5079126;28;20453;-71
2022/01/22 10:30:40;;;;;;;8.17;4.00;;;4.60;99.90;;;;;;5081746;28;20489;-71
2022/01/22 10:33:26;;;;;;;11.53;4.20;;;4.70;99.90;;;;;;5079028;28;20890;-71
2022/01/22 10:35:53;;;;;;;4.73;3.80;;;4.70;99.90;;;;;;5077396;28;20439;-71
2022/01/22 10:38:21;;;;;;;12.40;4.07;;;4.80;99.90;;;;;;5077297;28;20458;-71
2022/01/22 10:40:56;;;;;;;4.07;3.67;;;4.80;99.90;;;;;;5077091;28;20752;-71
2022/01/22 10:43:31;;;;;;;7.23;3.73;;;4.80;99.90;;;;;;5077111;28;20526;-72
2022/01/22 10:46:11;;;;;;;4.30;3.37;;;4.70;99.90;;;;;;5077218;28;20496;-71
2022/01/22 10:48:41;;;;;;;4.30;3.10;;;4.70;99.90;;;;;;5076681;28;20482;-70
2022/01/22 10:51:09;;;;;;;7.00;2.90;;;4.80;99.90;;;;;;5076945;28;20462;-72
2022/01/22 10:53:39;;;;;;;4.40;2.40;;;4.70;99.90;;;;;;5076848;28;20458;-70
2022/01/22 10:56:08;;;;;;;2.43;2.23;;;4.70;99.90;;;;;;5076781;28;20785;-76
2022/01/22 10:58:35;;;;;;;3.90;2.50;;;4.70;99.90;;;;;;5076520;28;20794;-72
2022/01/22 11:01:04;;;;;;;4.87;2.67;;;4.60;99.90;;;;;;5076857;28;20462;-72
2022/01/22 11:03:32;;;;;;;13.13;7.93;;;4.60;99.90;;;;;;5077044;28;20837;-72
2022/01/22 11:06:05;;;;;;;16.73;10.07;;;4.70;99.90;;;;;;5076864;28;20470;-71
2022/01/22 11:08:32;;;;;;;6.77;3.67;;;4.70;99.90;;;;;;5076706;28;20457;-71
2022/01/22 11:10:59;;;;;;;6.37;2.13;;;4.80;99.90;;;;;;5076614;28;20460;-71
2022/01/22 11:13:27;;;;;;;4.80;2.10;;;4.90;99.90;;;;;;5076670;28;20468;-71
2022/01/22 11:15:55;;;;;;;3.43;2.00;;;5.00;99.90;;;;;;5076244;28;20980;-70
2022/01/22 11:18:22;;;;;;;2.70;1.93;;;5.10;99.90;;;;;;5076295;28;20527;-70
2022/01/22 11:20:53;;;;;;;5.50;2.47;;;5.10;99.90;;;;;;5076704;28;20454;-71
2022/01/22 11:23:21;;;;;;;7.50;2.20;;;5.10;99.90;;;;;;5076620;28;20442;-71
2022/01/22 11:25:48;;;;;;;3.57;1.87;;;5.20;99.90;;;;;;5076257;28;20454;-72
2022/01/22 11:28:15;;;;;;;4.33;2.30;;;5.20;99.90;;;;;;5076523;28;20458;-72
2022/01/22 11:30:47;;;;;;;3.03;2.40;;;5.20;99.90;;;;;;5076198;28;20450;-71
2022/01/22 11:33:17;;;;;;;3.60;2.53;;;5.20;99.90;;;;;;5075790;28;20545;-71
2022/01/22 11:35:54;;;;;;;5.20;2.53;;;5.20;99.90;;;;;;5076030;28;20520;-71
2022/01/22 11:38:27;;;;;;;6.77;3.00;;;5.10;99.90;;;;;;5076154;28;20450;-71
2022/01/22 11:41:06;;;;;;;4.50;2.83;;;5.20;99.90;;;;;;5076787;28;20458;-71
2022/01/22 11:43:55;;;;;;;6.97;3.20;;;5.20;99.90;;;;;;5076158;28;20461;-71
2022/01/22 11:46:28;;;;;;;4.27;2.80;;;5.30;99.90;;;;;;5075955;28;20805;-71
2022/01/22 11:49:19;;;;;;;4.80;2.60;;;5.40;99.90;;;;;;5075553;28;20478;-71
2022/01/22 11:51:47;;;;;;;4.73;2.67;;;5.50;99.90;;;;;;5075541;28;20453;-71
2022/01/22 11:54:15;;;;;;;5.17;2.50;;;5.50;99.90;;;;;;5075434;28;20469;-71
2022/01/22 11:56:46;;;;;;;3.10;2.20;;;5.50;99.90;;;;;;5075347;28;20458;-71
2022/01/22 11:59:18;;;;;;;5.10;2.73;;;5.50;99.90;;;;;;5075480;28;20632;-71
2022/01/22 12:01:56;;;;;;;4.23;2.40;;;5.40;99.90;;;;;;5075284;28;20863;-71
2022/01/22 12:04:24;;;;;;;3.10;2.40;;;5.50;99.90;;;;;;5075405;28;20537;-71
2022/01/22 12:07:14;;;;;;;4.77;2.40;;;5.50;99.90;;;;;;5075442;28;20570;-71
2022/01/22 12:09:52;;;;;;;3.33;2.47;;;5.60;99.90;;;;;;5074717;28;20477;-71
2022/01/22 12:15:09;;;;;;;4.93;3.00;;;5.70;99.90;;;;;;5075113;28;20537;-70
2022/01/22 12:18:13;;;;;;;4.80;2.30;;;5.80;99.90;;;;;;5075087;28;20466;-71
2022/01/22 12:23:54;;;;;;;3.77;2.73;;;5.60;99.90;;;;;;5073449;28;20571;-70
2022/01/22 12:26:45;;;;;;;2.23;2.00;;;5.50;99.90;;;;;;5074529;28;20449;-71
2022/01/22 12:29:36;;;;;;;3.90;2.17;;;5.20;99.90;;;;;;5074943;28;20503;-71
2022/01/22 12:32:18;;;;;;;7.23;3.93;;;5.20;99.90;;;;;;5074966;28;20443;-72
2022/01/22 12:35:05;;;;;;;5.23;3.57;;;5.20;99.90;;;;;;5074946;28;20446;-71
2022/01/22 12:37:32;;;;;;;5.27;2.60;;;5.10;99.90;;;;;;5075611;28;20442;-71
2022/01/22 12:40:05;;;;;;;8.67;2.20;;;5.10;99.90;;;;;;5074857;28;20818;-71
2022/01/22 12:42:54;;;;;;;4.10;2.90;;;5.10;99.90;;;;;;5075100;28;20511;-71
2022/01/22 12:45:24;;;;;;;8.27;3.10;;;5.20;99.90;;;;;;5074981;28;20456;-70
2022/01/22 12:47:52;;;;;;;4.43;2.70;;;5.30;99.90;;;;;;5075454;28;20500;-71
2022/01/22 12:50:27;;;;;;;4.63;2.43;;;5.30;99.90;;;;;;5075292;28;20450;-72
2022/01/22 12:52:55;;;;;;;4.60;2.80;;;5.40;99.90;;;;;;5075111;28;20509;-71
2022/01/22 12:55:37;;;;;;;2.47;1.60;;;5.40;99.90;;;;;;5076139;28;20756;-72
2022/01/22 12:58:04;;;;;;;3.73;1.60;;;5.40;99.90;;;;;;5075652;28;20756;-71
2022/01/22 13:00:31;;;;;;;3.47;2.03;;;5.50;99.90;;;;;;5074863;28;20838;-71
2022/01/22 13:02:58;;;;;;;2.53;1.60;;;5.60;99.90;;;;;;5074648;28;20922;-71
2022/01/22 13:05:29;;;;;;;4.10;2.30;;;5.70;99.90;;;;;;5074870;28;20839;-71
2022/01/22 13:08:01;;;;;;;3.10;2.13;;;5.70;99.90;;;;;;5074658;28;20508;-71
2022/01/22 13:10:32;;;;;;;3.70;2.20;;;5.80;99.90;;;;;;5074924;28;20500;-71
2022/01/22 13:13:00;;;;;;;4.80;2.53;;;5.80;99.90;;;;;;5075110;28;20474;-71
2022/01/22 13:15:27;;;;;;;3.67;2.50;;;6.00;99.90;;;;;;5074877;28;20458;-71
2022/01/22 13:17:56;;;;;;;5.50;2.73;;;6.10;99.90;;;;;;5074855;28;20929;-71
2022/01/22 13:20:26;;;;;;;5.50;2.90;;;6.00;99.90;;;;;;5075116;28;20482;-71
2022/01/22 13:22:53;;;;;;;9.37;2.90;;;6.00;99.90;;;;;;5078356;28;20793;-71
2022/01/22 13:25:21;;;;;;;5.97;3.73;;;5.90;99.90;;;;;;5078409;28;20996;-71
2022/01/22 13:28:00;;;;;;;5.20;3.37;;;5.90;99.90;;;;;;5078951;28;20812;-73
2022/01/22 13:30:31;;;;;;;10.77;3.60;;;5.80;99.90;;;;;;5078439;28;20449;-71
2022/01/22 13:33:02;;;;;;;6.13;3.80;;;5.80;99.90;;;;;;5078433;28;20886;-71
2022/01/22 13:35:45;;;;;;;4.47;3.40;;;5.80;99.90;;;;;;5078426;28;20442;-71
2022/01/22 13:49:30;;;;;;;5.63;3.30;;;5.90;99.90;;;;;;5054506;28;20449;-71
2022/01/22 13:52:01;;;;;;;7.03;3.77;;;5.80;99.90;;;;;;5079826;28;20458;-72
2022/01/22 13:54:30;;;;;;;6.00;3.47;;;5.80;99.90;;;;;;5079193;28;20438;-71
2022/01/22 13:57:02;;;;;;;4.00;3.10;;;5.80;99.90;;;;;;5078011;28;20926;-71
2022/01/22 13:59:31;;;;;;;7.10;3.20;;;5.90;99.90;;;;;;5080337;28;20462;-71
2022/01/22 14:02:09;;;;;;;5.20;3.13;;;6.00;99.90;;;;;;5080233;28;20472;-71
2022/01/22 14:04:42;;;;;;;4.77;3.10;;;6.10;99.90;;;;;;5080454;28;20461;-71
2022/01/22 14:07:26;;;;;;;3.77;3.00;;;6.40;99.90;;;;;;5080977;28;20462;-71
2022/01/22 14:09:55;;;;;;;7.43;3.77;;;6.60;99.90;;;;;;5082483;28;20488;-71
2022/01/22 14:12:24;;;;;;;4.50;3.60;;;6.70;99.90;;;;;;5085531;28;20465;-71
2022/01/22 14:15:06;;;;;;;6.40;2.93;;;6.90;99.90;;;;;;5087272;28;20450;-71
2022/01/22 14:17:49;;;;;;;6.67;3.10;;;7.30;99.90;;;;;;5086755;28;20479;-71
2022/01/22 14:20:19;;;;;;;5.33;2.93;;;7.20;99.90;;;;;;5085208;28;20476;-70
2022/01/22 14:23:03;;;;;;;3.70;2.87;;;7.00;99.90;;;;;;5081528;28;20454;-70
2022/01/22 14:25:32;;;;;;;3.43;2.63;;;6.90;99.90;;;;;;5078658;28;20485;-71
2022/01/22 14:28:07;;;;;;;10.63;2.97;;;6.70;99.90;;;;;;5079177;28;20450;-72
2022/01/22 14:30:45;;;;;;;4.87;2.67;;;6.40;99.90;;;;;;5078346;28;20438;-72